sensor_id;sensor_type;location;lat;lon;timestamp;pressure;altitude;pressure_sealevel;temperature;humidity
67842;BME280;54642;59.126;37.876;2023-05-29T00:01:25;100032.69;;;13.58;47.37
67842;BME280;54642;59.126;37.876;2023-05-29T00:03:51;100009.50;;;13.44;47.29
67842;BME280;54642;59.126;37.876;2023-05-29T00:06:18;100027.53;;;13.57;47.21
67842;BME280;54642;59.126;37.876;2023-05-29T00:08:45;99986.28;;;13.33;46.86
67842;BME280;54642;59.126;37.876;2023-05-29T00:11:12;100013.00;;;13.43;47.32
67842;BME280;54642;59.126;37.876;2023-05-29T00:13:38;99932.22;;;12.96;47.33
67842;BME280;54642;59.126;37.876;2023-05-29T00:16:04;100031.97;;;13.50;47.23
67842;BME280;54642;59.126;37.876;2023-05-29T00:18:30;100022.66;;;13.37;47.77
67842;BME280;54642;59.126;37.876;2023-05-29T00:20:56;100043.53;;;13.33;48.01
67842;BME280;54642;59.126;37.876;2023-05-29T00:23:21;100036.81;;;13.17;48.28
67842;BME280;54642;59.126;37.876;2023-05-29T00:25:47;100023.19;;;13.03;48.41
67842;BME280;54642;59.126;37.876;2023-05-29T00:28:13;100026.72;;;12.99;48.86
67842;BME280;54642;59.126;37.876;2023-05-29T00:30:39;99971.00;;;12.57;49.15
67842;BME280;54642;59.126;37.876;2023-05-29T00:33:05;100035.50;;;12.91;48.95
67842;BME280;54642;59.126;37.876;2023-05-29T00:35:31;100032.72;;;13.02;48.60
67842;BME280;54642;59.126;37.876;2023-05-29T00:37:57;100025.84;;;12.96;48.26
67842;BME280;54642;59.126;37.876;2023-05-29T00:40:24;100046.56;;;13.04;48.13
67842;BME280;54642;59.126;37.876;2023-05-29T00:42:50;100047.56;;;12.95;48.21
67842;BME280;54642;59.126;37.876;2023-05-29T00:45:16;100050.19;;;12.92;48.15
67842;BME280;54642;59.126;37.876;2023-05-29T00:47:42;100037.31;;;12.86;48.20
67842;BME280;54642;59.126;37.876;2023-05-29T00:50:09;100047.59;;;12.92;48.28
67842;BME280;54642;59.126;37.876;2023-05-29T00:52:37;100045.94;;;12.88;48.26
67842;BME280;54642;59.126;37.876;2023-05-29T00:55:04;100041.66;;;12.84;48.16
67842;BME280;54642;59.126;37.876;2023-05-29T00:57:31;100009.03;;;12.63;48.36
67842;BME280;54642;59.126;37.876;2023-05-29T00:59:58;100001.28;;;12.58;48.37
67842;BME280;54642;59.126;37.876;2023-05-29T01:02:24;100048.69;;;12.79;48.28
67842;BME280;54642;59.126;37.876;2023-05-29T01:04:50;100056.41;;;12.82;48.30
67842;BME280;54642;59.126;37.876;2023-05-29T01:07:20;99969.69;;;12.27;48.55
67842;BME280;54642;59.126;37.876;2023-05-29T01:09:46;100059.97;;;12.75;48.72
67842;BME280;54642;59.126;37.876;2023-05-29T01:12:33;100062.53;;;12.78;48.69
67842;BME280;54642;59.126;37.876;2023-05-29T01:15:21;100059.16;;;12.71;49.17
67842;BME280;54642;59.126;37.876;2023-05-29T01:28:33;100066.31;;;12.55;49.48
67842;BME280;54642;59.126;37.876;2023-05-29T01:31:04;100048.31;;;12.40;49.71
67842;BME280;54642;59.126;37.876;2023-05-29T01:33:29;100058.72;;;12.40;50.13
67842;BME280;54642;59.126;37.876;2023-05-29T01:35:55;100073.38;;;12.44;50.15
67842;BME280;54642;59.126;37.876;2023-05-29T01:38:22;100063.91;;;12.42;50.37
67842;BME280;54642;59.126;37.876;2023-05-29T01:40:50;100081.16;;;12.47;50.34
67842;BME280;54642;59.126;37.876;2023-05-29T01:43:16;100039.84;;;12.26;50.47
67842;BME280;54642;59.126;37.876;2023-05-29T01:45:43;100068.22;;;12.41;50.49
67842;BME280;54642;59.126;37.876;2023-05-29T01:48:09;100073.47;;;12.39;51.00
67842;BME280;54642;59.126;37.876;2023-05-29T01:50:35;100077.75;;;12.42;51.02
67842;BME280;54642;59.126;37.876;2023-05-29T01:53:02;100076.06;;;12.38;51.35
67842;BME280;54642;59.126;37.876;2023-05-29T01:55:28;100071.03;;;12.24;51.71
67842;BME280;54642;59.126;37.876;2023-05-29T01:57:54;100009.03;;;11.95;51.92
67842;BME280;54642;59.126;37.876;2023-05-29T02:00:21;100083.06;;;12.33;51.88
67842;BME280;54642;59.126;37.876;2023-05-29T02:02:47;100075.38;;;12.24;51.83
67842;BME280;54642;59.126;37.876;2023-05-29T02:05:13;100028.06;;;11.94;52.04
67842;BME280;54642;59.126;37.876;2023-05-29T02:07:39;100084.94;;;12.22;52.56
67842;BME280;54642;59.126;37.876;2023-05-29T02:10:05;100065.13;;;12.10;52.57
67842;BME280;54642;59.126;37.876;2023-05-29T02:12:31;100036.75;;;11.90;52.61
67842;BME280;54642;59.126;37.876;2023-05-29T02:14:57;100081.53;;;12.13;52.66
67842;BME280;54642;59.126;37.876;2023-05-29T02:17:23;100028.16;;;11.85;52.84
67842;BME280;54642;59.126;37.876;2023-05-29T02:19:50;100073.78;;;12.09;52.95
67842;BME280;54642;59.126;37.876;2023-05-29T02:22:17;100058.28;;;12.04;52.97
67842;BME280;54642;59.126;37.876;2023-05-29T02:24:43;100097.97;;;12.14;53.04
67842;BME280;54642;59.126;37.876;2023-05-29T02:27:09;100083.31;;;12.11;53.04
67842;BME280;54642;59.126;37.876;2023-05-29T02:29:35;100079.00;;;12.07;53.24
67842;BME280;54642;59.126;37.876;2023-05-29T02:32:01;100048.97;;;11.78;53.22
67842;BME280;54642;59.126;37.876;2023-05-29T02:34:27;100015.44;;;11.57;53.27
67842;BME280;54642;59.126;37.876;2023-05-29T02:36:53;100066.28;;;11.81;53.34
67842;BME280;54642;59.126;37.876;2023-05-29T02:39:19;100099.88;;;11.99;53.67
67842;BME280;54642;59.126;37.876;2023-05-29T02:41:45;100106.00;;;11.94;53.65
67842;BME280;54642;59.126;37.876;2023-05-29T02:44:11;100083.53;;;11.85;53.67
67842;BME280;54642;59.126;37.876;2023-05-29T02:46:37;100092.16;;;11.90;53.71
67842;BME280;54642;59.126;37.876;2023-05-29T02:49:02;100107.63;;;12.04;54.06
67842;BME280;54642;59.126;37.876;2023-05-29T02:51:29;100105.84;;;12.09;53.72
67842;BME280;54642;59.126;37.876;2023-05-29T02:53:58;100068.00;;;11.80;53.84
67842;BME280;54642;59.126;37.876;2023-05-29T02:56:24;100093.81;;;12.00;53.76
67842;BME280;54642;59.126;37.876;2023-05-29T02:58:51;100098.94;;;12.05;53.81
67842;BME280;54642;59.126;37.876;2023-05-29T03:01:18;100073.13;;;11.87;53.85
67842;BME280;54642;59.126;37.876;2023-05-29T03:03:44;100061.16;;;11.73;54.07
67842;BME280;54642;59.126;37.876;2023-05-29T03:06:11;100092.13;;;11.95;54.19
67842;BME280;54642;59.126;37.876;2023-05-29T03:08:39;100110.16;;;12.07;54.53
67842;BME280;54642;59.126;37.876;2023-05-29T03:11:11;100084.31;;;11.96;54.63
67842;BME280;54642;59.126;37.876;2023-05-29T03:13:38;100050.63;;;11.86;54.97
67842;BME280;54642;59.126;37.876;2023-05-29T03:16:07;100097.97;;;12.14;54.94
67842;BME280;54642;59.126;37.876;2023-05-29T03:18:35;100107.41;;;12.23;55.20
67842;BME280;54642;59.126;37.876;2023-05-29T03:21:01;100110.84;;;12.26;55.50
67842;BME280;54642;59.126;37.876;2023-05-29T03:23:29;100056.66;;;11.94;55.63
67842;BME280;54642;59.126;37.876;2023-05-29T03:25:55;100020.47;;;11.77;55.88
67842;BME280;54642;59.126;37.876;2023-05-29T03:28:21;100118.53;;;12.35;56.31
67842;BME280;54642;59.126;37.876;2023-05-29T03:30:47;100121.97;;;12.39;56.79
67842;BME280;54642;59.126;37.876;2023-05-29T03:33:16;100101.16;;;12.39;56.53
67842;BME280;54642;59.126;37.876;2023-05-29T03:36:08;100070.19;;;12.22;56.55
67842;BME280;54642;59.126;37.876;2023-05-29T03:38:35;100111.56;;;12.39;56.82
67842;BME280;54642;59.126;37.876;2023-05-29T03:41:02;100053.91;;;12.08;56.78
67842;BME280;54642;59.126;37.876;2023-05-29T03:43:28;100108.97;;;12.39;57.14
67842;BME280;54642;59.126;37.876;2023-05-29T03:45:54;100118.47;;;12.42;57.33
67842;BME280;54642;59.126;37.876;2023-05-29T03:48:20;100059.94;;;12.10;57.13
67842;BME280;54642;59.126;37.876;2023-05-29T03:50:47;100097.81;;;12.31;57.19
67842;BME280;54642;59.126;37.876;2023-05-29T03:53:15;100114.13;;;12.44;57.19
67842;BME280;54642;59.126;37.876;2023-05-29T03:55:42;100085.69;;;12.28;57.19
67842;BME280;54642;59.126;37.876;2023-05-29T03:58:08;100119.19;;;12.53;57.07
67842;BME280;54642;59.126;37.876;2023-05-29T04:00:35;100120.00;;;12.59;56.93
67842;BME280;54642;59.126;37.876;2023-05-29T04:03:02;100058.75;;;12.37;56.85
67842;BME280;54642;59.126;37.876;2023-05-29T04:05:28;100081.03;;;12.58;56.77
67842;BME280;54642;59.126;37.876;2023-05-29T04:07:55;100103.31;;;12.76;56.86
67842;BME280;54642;59.126;37.876;2023-05-29T04:10:21;100116.22;;;12.82;56.68
67842;BME280;54642;59.126;37.876;2023-05-29T04:12:47;100103.28;;;12.81;56.45
67842;BME280;54642;59.126;37.876;2023-05-29T04:15:14;100112.66;;;12.89;56.33
67842;BME280;54642;59.126;37.876;2023-05-29T04:17:40;100090.16;;;12.88;56.37
67842;BME280;54642;59.126;37.876;2023-05-29T04:20:06;100073.78;;;12.80;56.35
67842;BME280;54642;59.126;37.876;2023-05-29T04:22:37;100109.03;;;13.03;56.66
67842;BME280;54642;59.126;37.876;2023-05-29T04:25:04;100104.69;;;13.02;56.58
67842;BME280;54642;59.126;37.876;2023-05-29T04:27:31;100101.19;;;13.04;56.58
67842;BME280;54642;59.126;37.876;2023-05-29T04:30:05;100118.31;;;13.19;56.63
67842;BME280;54642;59.126;37.876;2023-05-29T04:32:36;100110.69;;;13.07;56.50
67842;BME280;54642;59.126;37.876;2023-05-29T04:35:02;100059.00;;;12.82;56.63
67842;BME280;54642;59.126;37.876;2023-05-29T04:37:32;100117.31;;;13.28;56.57
67842;BME280;54642;59.126;37.876;2023-05-29T04:40:08;100073.38;;;13.09;56.22
67842;BME280;54642;59.126;37.876;2023-05-29T04:42:37;100057.72;;;13.11;55.79
67842;BME280;54642;59.126;37.876;2023-05-29T04:45:05;100124.00;;;13.47;55.53
67842;BME280;54642;59.126;37.876;2023-05-29T04:47:35;100128.13;;;13.59;55.03
67842;BME280;54642;59.126;37.876;2023-05-29T04:50:03;100090.22;;;13.44;54.74
67842;BME280;54642;59.126;37.876;2023-05-29T04:52:29;100110.66;;;13.67;54.33
67842;BME280;54642;59.126;37.876;2023-05-29T04:54:58;100108.78;;;13.76;54.15
67842;BME280;54642;59.126;37.876;2023-05-29T04:57:24;100122.47;;;13.87;54.00
67842;BME280;54642;59.126;37.876;2023-05-29T04:59:49;100070.84;;;13.59;53.83
67842;BME280;54642;59.126;37.876;2023-05-29T05:02:18;100118.09;;;13.89;53.66
67842;BME280;54642;59.126;37.876;2023-05-29T05:04:44;100113.50;;;14.03;53.61
67842;BME280;54642;59.126;37.876;2023-05-29T05:07:11;100086.69;;;13.97;53.34
67842;BME280;54642;59.126;37.876;2023-05-29T05:09:37;100119.03;;;14.33;53.39
67842;BME280;54642;59.126;37.876;2023-05-29T05:12:03;100056.09;;;14.08;52.94
67842;BME280;54642;59.126;37.876;2023-05-29T05:14:29;100103.97;;;14.47;51.98
67842;BME280;54642;59.126;37.876;2023-05-29T05:16:55;100117.63;;;14.62;51.82
67842;BME280;54642;59.126;37.876;2023-05-29T05:19:20;100114.88;;;14.68;51.69
67842;BME280;54642;59.126;37.876;2023-05-29T05:21:54;100125.13;;;14.77;51.77
67842;BME280;54642;59.126;37.876;2023-05-29T05:24:21;100126.59;;;14.89;51.43
67842;BME280;54642;59.126;37.876;2023-05-29T05:26:47;100067.09;;;14.66;51.46
67842;BME280;54642;59.126;37.876;2023-05-29T05:29:13;100120.91;;;15.11;51.40
67842;BME280;54642;59.126;37.876;2023-05-29T05:31:39;100120.56;;;15.26;51.44
67842;BME280;54642;59.126;37.876;2023-05-29T05:34:05;100113.38;;;15.36;51.19
67842;BME280;54642;59.126;37.876;2023-05-29T05:36:31;100078.88;;;15.23;50.92
67842;BME280;54642;59.126;37.876;2023-05-29T05:39:05;100113.16;;;15.45;50.66
67842;BME280;54642;59.126;37.876;2023-05-29T05:41:31;100119.91;;;15.54;50.38
67842;BME280;54642;59.126;37.876;2023-05-29T05:43:57;100089.06;;;15.34;50.08
67842;BME280;54642;59.126;37.876;2023-05-29T05:46:37;100121.56;;;15.58;50.27
67842;BME280;54642;59.126;37.876;2023-05-29T05:49:03;100116.19;;;15.64;50.42
67842;BME280;54642;59.126;37.876;2023-05-29T05:51:29;100117.78;;;15.70;50.16
67842;BME280;54642;59.126;37.876;2023-05-29T05:53:56;100119.13;;;15.86;49.94
67842;BME280;54642;59.126;37.876;2023-05-29T05:56:22;100102.50;;;15.90;49.63
67842;BME280;54642;59.126;37.876;2023-05-29T05:58:48;100125.47;;;16.10;49.64
67842;BME280;54642;59.126;37.876;2023-05-29T06:01:18;100091.78;;;15.99;48.64
67842;BME280;54642;59.126;37.876;2023-05-29T06:03:44;100113.75;;;16.25;48.50
67842;BME280;54642;59.126;37.876;2023-05-29T06:06:10;100118.47;;;16.44;48.24
67842;BME280;54642;59.126;37.876;2023-05-29T06:08:38;100075.31;;;16.27;48.09
67842;BME280;54642;59.126;37.876;2023-05-29T06:11:07;100097.09;;;16.59;47.45
67842;BME280;54642;59.126;37.876;2023-05-29T06:13:35;100117.59;;;16.74;46.86
67842;BME280;54642;59.126;37.876;2023-05-29T06:16:12;100108.94;;;16.72;46.54
67842;BME280;54642;59.126;37.876;2023-05-29T06:18:38;100078.53;;;16.67;46.38
67842;BME280;54642;59.126;37.876;2023-05-29T06:21:04;100104.69;;;16.98;45.96
67842;BME280;54642;59.126;37.876;2023-05-29T06:23:30;100110.50;;;17.08;45.42
67842;BME280;54642;59.126;37.876;2023-05-29T06:25:56;100113.81;;;17.13;45.07
67842;BME280;54642;59.126;37.876;2023-05-29T06:28:22;100104.91;;;17.19;44.97
67842;BME280;54642;59.126;37.876;2023-05-29T06:30:48;100059.38;;;16.96;44.45
67842;BME280;54642;59.126;37.876;2023-05-29T06:33:15;100053.06;;;17.03;44.19
67842;BME280;54642;59.126;37.876;2023-05-29T06:35:41;100116.13;;;17.50;44.55
67842;BME280;54642;59.126;37.876;2023-05-29T06:38:24;100099.44;;;17.55;44.20
67842;BME280;54642;59.126;37.876;2023-05-29T06:40:51;100103.13;;;17.74;43.86
67842;BME280;54642;59.126;37.876;2023-05-29T06:43:17;100101.47;;;17.71;43.88
67842;BME280;54642;59.126;37.876;2023-05-29T06:45:50;100110.69;;;17.83;43.67
67842;BME280;54642;59.126;37.876;2023-05-29T06:48:16;100108.59;;;17.95;43.53
67842;BME280;54642;59.126;37.876;2023-05-29T06:50:45;100114.63;;;17.97;43.75
67842;BME280;54642;59.126;37.876;2023-05-29T06:53:37;100059.44;;;17.75;43.53
67842;BME280;54642;59.126;37.876;2023-05-29T06:56:04;100110.03;;;18.03;42.96
67842;BME280;54642;59.126;37.876;2023-05-29T06:58:32;100102.47;;;18.19;42.96
67842;BME280;54642;59.126;37.876;2023-05-29T07:00:58;100104.13;;;18.22;42.55
67842;BME280;54642;59.126;37.876;2023-05-29T07:03:31;100098.94;;;18.20;42.52
67842;BME280;54642;59.126;37.876;2023-05-29T07:05:57;100087.53;;;18.21;42.47
67842;BME280;54642;59.126;37.876;2023-05-29T07:08:23;100092.16;;;18.38;42.35
67842;BME280;54642;59.126;37.876;2023-05-29T07:10:51;100092.91;;;18.42;41.90
67842;BME280;54642;59.126;37.876;2023-05-29T07:13:18;100096.63;;;18.60;41.78
67842;BME280;54642;59.126;37.876;2023-05-29T07:15:46;100099.88;;;18.66;41.19
67842;BME280;54642;59.126;37.876;2023-05-29T07:18:16;100096.19;;;18.71;41.17
67842;BME280;54642;59.126;37.876;2023-05-29T07:20:42;100099.56;;;18.74;41.28
67842;BME280;54642;59.126;37.876;2023-05-29T07:23:12;100095.19;;;18.75;41.11
67842;BME280;54642;59.126;37.876;2023-05-29T07:25:40;100106.66;;;18.72;40.38
67842;BME280;54642;59.126;37.876;2023-05-29T07:28:06;100054.97;;;18.51;40.81
67842;BME280;54642;59.126;37.876;2023-05-29T07:30:32;100106.16;;;18.86;40.03
67842;BME280;54642;59.126;37.876;2023-05-29T07:32:58;100077.50;;;18.80;40.02
67842;BME280;54642;59.126;37.876;2023-05-29T07:35:24;100090.25;;;19.13;40.05
67842;BME280;54642;59.126;37.876;2023-05-29T07:37:49;100090.72;;;19.22;39.23
67842;BME280;54642;59.126;37.876;2023-05-29T07:40:20;100074.81;;;19.05;38.45
67842;BME280;54642;59.126;37.876;2023-05-29T07:43:04;100089.13;;;19.18;38.87
67842;BME280;54642;59.126;37.876;2023-05-29T07:45:44;100081.31;;;19.17;38.88
67842;BME280;54642;59.126;37.876;2023-05-29T07:48:10;100077.06;;;19.14;38.55
67842;BME280;54642;59.126;37.876;2023-05-29T07:50:36;100095.38;;;19.38;38.23
67842;BME280;54642;59.126;37.876;2023-05-29T07:53:02;100048.03;;;19.17;38.00
67842;BME280;54642;59.126;37.876;2023-05-29T07:55:29;100087.16;;;19.46;38.27
67842;BME280;54642;59.126;37.876;2023-05-29T07:57:56;100090.78;;;19.43;37.79
67842;BME280;54642;59.126;37.876;2023-05-29T08:00:22;100091.00;;;19.59;38.08
67842;BME280;54642;59.126;37.876;2023-05-29T08:02:51;100086.41;;;19.64;38.00
67842;BME280;54642;59.126;37.876;2023-05-29T08:05:33;100046.31;;;19.59;38.39
67842;BME280;54642;59.126;37.876;2023-05-29T08:08:02;100098.25;;;19.74;37.33
67842;BME280;54642;59.126;37.876;2023-05-29T08:10:29;100097.72;;;19.66;36.98
67842;BME280;54642;59.126;37.876;2023-05-29T08:12:54;100100.00;;;19.53;37.27
67842;BME280;54642;59.126;37.876;2023-05-29T08:15:21;100090.41;;;19.52;37.05
67842;BME280;54642;59.126;37.876;2023-05-29T08:17:50;100106.72;;;19.60;37.39
67842;BME280;54642;59.126;37.876;2023-05-29T08:20:16;100105.31;;;19.72;37.23
67842;BME280;54642;59.126;37.876;2023-05-29T08:22:42;100086.13;;;19.70;37.05
67842;BME280;54642;59.126;37.876;2023-05-29T08:25:08;100048.28;;;19.54;36.86
67842;BME280;54642;59.126;37.876;2023-05-29T08:27:34;100098.34;;;19.93;36.98
67842;BME280;54642;59.126;37.876;2023-05-29T08:29:59;100094.47;;;20.02;37.06
67842;BME280;54642;59.126;37.876;2023-05-29T08:32:25;100083.16;;;20.00;36.72
67842;BME280;54642;59.126;37.876;2023-05-29T08:34:51;100041.28;;;19.75;36.78
67842;BME280;54642;59.126;37.876;2023-05-29T08:37:17;100087.81;;;20.14;36.58
67842;BME280;54642;59.126;37.876;2023-05-29T08:39:43;100053.44;;;19.98;36.76
67842;BME280;54642;59.126;37.876;2023-05-29T08:42:13;100083.75;;;20.07;36.13
67842;BME280;54642;59.126;37.876;2023-05-29T08:44:40;100068.28;;;19.99;36.51
67842;BME280;54642;59.126;37.876;2023-05-29T08:47:07;100092.44;;;20.09;36.34
67842;BME280;54642;59.126;37.876;2023-05-29T08:49:43;100061.38;;;19.96;35.97
67842;BME280;54642;59.126;37.876;2023-05-29T08:52:23;100043.97;;;19.73;36.36
67842;BME280;54642;59.126;37.876;2023-05-29T08:54:51;100033.56;;;19.70;35.50
67842;BME280;54642;59.126;37.876;2023-05-29T08:57:18;100056.66;;;19.84;36.22
67842;BME280;54642;59.126;37.876;2023-05-29T08:59:44;100090.63;;;20.09;36.14
67842;BME280;54642;59.126;37.876;2023-05-29T09:02:11;100090.81;;;20.05;36.34
67842;BME280;54642;59.126;37.876;2023-05-29T09:04:38;100040.81;;;19.86;36.81
67842;BME280;54642;59.126;37.876;2023-05-29T09:07:04;100093.69;;;20.19;36.32
67842;BME280;54642;59.126;37.876;2023-05-29T09:09:34;100080.78;;;20.14;36.06
67842;BME280;54642;59.126;37.876;2023-05-29T09:12:00;100069.59;;;20.09;35.98
67842;BME280;54642;59.126;37.876;2023-05-29T09:14:39;100069.41;;;20.14;35.72
67842;BME280;54642;59.126;37.876;2023-05-29T09:17:06;100071.03;;;20.16;35.83
67842;BME280;54642;59.126;37.876;2023-05-29T09:19:34;100079.22;;;20.29;35.92
67842;BME280;54642;59.126;37.876;2023-05-29T09:22:05;100070.69;;;20.24;35.69
67842;BME280;54642;59.126;37.876;2023-05-29T09:24:34;100067.56;;;20.35;36.10
67842;BME280;54642;59.126;37.876;2023-05-29T09:27:00;100069.28;;;20.36;35.58
67842;BME280;54642;59.126;37.876;2023-05-29T09:29:39;100055.34;;;20.34;35.72
67842;BME280;54642;59.126;37.876;2023-05-29T09:32:11;100017.88;;;20.08;36.14
67842;BME280;54642;59.126;37.876;2023-05-29T09:34:38;100035.25;;;20.12;35.61
67842;BME280;54642;59.126;37.876;2023-05-29T09:37:06;100065.28;;;20.27;35.75
67842;BME280;54642;59.126;37.876;2023-05-29T09:42:09;100069.91;;;20.22;35.83
67842;BME280;54642;59.126;37.876;2023-05-29T09:44:35;99991.84;;;19.83;35.76
67842;BME280;54642;59.126;37.876;2023-05-29T09:47:01;100078.25;;;20.32;35.86
67842;BME280;54642;59.126;37.876;2023-05-29T09:49:27;100065.00;;;20.33;36.08
67842;BME280;54642;59.126;37.876;2023-05-29T09:51:54;100032.16;;;20.23;35.55
67842;BME280;54642;59.126;37.876;2023-05-29T09:54:20;100056.78;;;20.41;35.41
67842;BME280;54642;59.126;37.876;2023-05-29T09:56:47;100058.63;;;20.39;35.65
67842;BME280;54642;59.126;37.876;2023-05-29T09:59:14;100056.19;;;20.34;35.56
67842;BME280;54642;59.126;37.876;2023-05-29T10:01:43;100052.06;;;20.29;35.59
67842;BME280;54642;59.126;37.876;2023-05-29T10:04:11;100024.69;;;20.14;35.18
67842;BME280;54642;59.126;37.876;2023-05-29T10:06:46;100002.63;;;20.16;35.44
67842;BME280;54642;59.126;37.876;2023-05-29T10:09:15;100055.06;;;20.40;36.03
67842;BME280;54642;59.126;37.876;2023-05-29T10:11:47;100047.28;;;20.37;35.36
67842;BME280;54642;59.126;37.876;2023-05-29T10:14:18;100048.09;;;20.39;35.12
67842;BME280;54642;59.126;37.876;2023-05-29T10:16:49;100005.38;;;20.13;35.08
67842;BME280;54642;59.126;37.876;2023-05-29T10:19:21;100035.19;;;20.33;35.31
67842;BME280;54642;59.126;37.876;2023-05-29T10:21:52;100048.50;;;20.49;35.21
67842;BME280;54642;59.126;37.876;2023-05-29T10:24:20;100006.75;;;20.22;35.03
67842;BME280;54642;59.126;37.876;2023-05-29T10:26:49;99963.13;;;19.97;34.80
67842;BME280;54642;59.126;37.876;2023-05-29T10:29:34;100066.09;;;20.48;34.47
67842;BME280;54642;59.126;37.876;2023-05-29T10:32:23;100052.94;;;20.48;35.20
67842;BME280;54642;59.126;37.876;2023-05-29T10:37:44;100031.56;;;20.54;35.54
67842;BME280;54642;59.126;37.876;2023-05-29T10:40:11;100050.66;;;20.60;35.74
67842;BME280;54642;59.126;37.876;2023-05-29T10:42:41;100062.97;;;20.59;35.12
67842;BME280;54642;59.126;37.876;2023-05-29T10:45:09;100058.44;;;20.63;35.58
67842;BME280;54642;59.126;37.876;2023-05-29T10:47:38;100017.28;;;20.41;34.58
67842;BME280;54642;59.126;37.876;2023-05-29T10:50:04;100007.97;;;20.34;34.85
67842;BME280;54642;59.126;37.876;2023-05-29T10:52:34;100043.41;;;20.65;34.96
67842;BME280;54642;59.126;37.876;2023-05-29T10:55:01;99964.72;;;20.21;34.96
67842;BME280;54642;59.126;37.876;2023-05-29T10:57:31;100017.50;;;20.55;35.00
67842;BME280;54642;59.126;37.876;2023-05-29T11:00:06;99965.88;;;20.34;35.05
67842;BME280;54642;59.126;37.876;2023-05-29T11:02:39;100039.06;;;20.83;34.42
67842;BME280;54642;59.126;37.876;2023-05-29T11:05:26;100034.28;;;20.91;34.80
67842;BME280;54642;59.126;37.876;2023-05-29T11:07:59;100010.31;;;20.78;34.50
67842;BME280;54642;59.126;37.876;2023-05-29T11:10:45;100019.72;;;20.84;34.56
67842;BME280;54642;59.126;37.876;2023-05-29T11:13:53;100033.22;;;20.95;34.50
67842;BME280;54642;59.126;37.876;2023-05-29T11:18:55;100028.66;;;20.99;34.02
67842;BME280;54642;59.126;37.876;2023-05-29T11:23:51;100027.09;;;20.94;34.14
67842;BME280;54642;59.126;37.876;2023-05-29T11:26:23;99949.31;;;20.49;34.06
67842;BME280;54642;59.126;37.876;2023-05-29T11:28:50;100027.69;;;21.00;34.24
67842;BME280;54642;59.126;37.876;2023-05-29T11:31:17;100034.22;;;21.10;34.33
67842;BME280;54642;59.126;37.876;2023-05-29T11:33:49;99985.88;;;20.93;34.21
67842;BME280;54642;59.126;37.876;2023-05-29T11:36:19;100018.91;;;21.18;33.86
67842;BME280;54642;59.126;37.876;2023-05-29T11:38:45;100039.19;;;20.99;33.59
67842;BME280;54642;59.126;37.876;2023-05-29T11:41:12;100018.09;;;20.62;34.45
67842;BME280;54642;59.126;37.876;2023-05-29T11:43:37;100005.25;;;20.54;34.00
67842;BME280;54642;59.126;37.876;2023-05-29T11:46:18;100041.13;;;20.95;34.48
67842;BME280;54642;59.126;37.876;2023-05-29T11:48:48;100030.69;;;21.11;34.17
67842;BME280;54642;59.126;37.876;2023-05-29T11:51:15;100030.09;;;21.23;34.41
67842;BME280;54642;59.126;37.876;2023-05-29T11:53:43;99977.97;;;21.11;34.73
67842;BME280;54642;59.126;37.876;2023-05-29T11:56:09;100022.97;;;21.43;34.35
67842;BME280;54642;59.126;37.876;2023-05-29T11:58:39;100023.81;;;21.43;34.01
67842;BME280;54642;59.126;37.876;2023-05-29T12:01:07;99975.97;;;21.16;34.24
67842;BME280;54642;59.126;37.876;2023-05-29T12:03:38;99961.09;;;21.15;33.58
67842;BME280;54642;59.126;37.876;2023-05-29T12:06:05;99966.97;;;21.20;33.95
67842;BME280;54642;59.126;37.876;2023-05-29T12:08:32;99986.13;;;21.41;33.94
67842;BME280;54642;59.126;37.876;2023-05-29T12:10:57;100015.84;;;21.62;34.11
67842;BME280;54642;59.126;37.876;2023-05-29T12:13:23;100010.94;;;21.72;33.92
67842;BME280;54642;59.126;37.876;2023-05-29T12:15:57;100007.69;;;21.67;33.39
67842;BME280;54642;59.126;37.876;2023-05-29T12:18:24;100023.44;;;21.68;33.78
67842;BME280;54642;59.126;37.876;2023-05-29T12:20:50;100013.34;;;21.77;33.51
67842;BME280;54642;59.126;37.876;2023-05-29T12:23:18;100012.31;;;21.79;33.65
67842;BME280;54642;59.126;37.876;2023-05-29T12:25:46;100014.13;;;21.79;33.63
67842;BME280;54642;59.126;37.876;2023-05-29T12:28:18;99973.47;;;21.65;33.69
67842;BME280;54642;59.126;37.876;2023-05-29T12:30:46;100009.88;;;21.92;33.52
67842;BME280;54642;59.126;37.876;2023-05-29T12:35:46;99955.97;;;21.64;33.64
67842;BME280;54642;59.126;37.876;2023-05-29T12:38:12;99998.56;;;21.90;33.13
67842;BME280;54642;59.126;37.876;2023-05-29T12:40:40;99970.28;;;21.76;32.80
67842;BME280;54642;59.126;37.876;2023-05-29T12:43:13;100005.56;;;21.91;32.87
67842;BME280;54642;59.126;37.876;2023-05-29T12:45:39;100001.66;;;21.98;32.94
67842;BME280;54642;59.126;37.876;2023-05-29T12:48:06;100001.53;;;21.84;32.56
67842;BME280;54642;59.126;37.876;2023-05-29T12:50:34;100003.78;;;21.74;33.22
67842;BME280;54642;59.126;37.876;2023-05-29T12:53:04;99998.97;;;21.82;32.78
67842;BME280;54642;59.126;37.876;2023-05-29T12:55:37;99896.66;;;21.21;32.78
67842;BME280;54642;59.126;37.876;2023-05-29T12:58:05;99991.00;;;21.84;32.66
67842;BME280;54642;59.126;37.876;2023-05-29T13:00:33;99916.56;;;21.26;32.69
67842;BME280;54642;59.126;37.876;2023-05-29T13:02:59;100000.94;;;21.79;32.52
67842;BME280;54642;59.126;37.876;2023-05-29T13:05:25;99985.94;;;21.79;32.27
67842;BME280;54642;59.126;37.876;2023-05-29T13:07:51;99957.84;;;21.62;32.44
67842;BME280;54642;59.126;37.876;2023-05-29T13:10:18;99996.84;;;21.89;32.25